createdAt,value
2018-05-23T00:02:10.313Z,62.40
2018-05-23T00:04:42.255Z,62.70
2018-05-23T00:07:13.511Z,62.50
2018-05-23T00:09:44.728Z,62.60
2018-05-23T00:12:15.901Z,62.90
2018-05-23T00:14:47.142Z,63.10
2018-05-23T00:17:18.321Z,63.30
2018-05-23T00:19:49.609Z,63.30
2018-05-23T00:22:20.798Z,63.60
2018-05-23T00:24:52.779Z,63.90
2018-05-23T00:27:25.077Z,63.40
2018-05-23T00:29:56.308Z,64.10
2018-05-23T00:32:27.747Z,64.10
2018-05-23T00:34:58.950Z,64.40
2018-05-23T00:37:30.193Z,64.70
2018-05-23T00:40:01.433Z,64.60
2018-05-23T00:42:32.761Z,64.60
2018-05-23T00:45:03.981Z,65.70
2018-05-23T00:47:35.203Z,65.70
2018-05-23T00:50:06.398Z,65.30
2018-05-23T00:52:37.597Z,65.40
2018-05-23T00:55:21.701Z,65.80
2018-05-23T00:57:53.991Z,65.90
2018-05-23T01:00:25.922Z,66.60
2018-05-23T01:02:57.234Z,65.90
2018-05-23T01:05:28.422Z,66.00
2018-05-23T01:07:59.821Z,66.10
2018-05-23T01:10:31.059Z,66.10
2018-05-23T01:13:02.294Z,66.20
2018-05-23T01:15:33.465Z,66.60
2018-05-23T01:18:04.726Z,66.70
2018-05-23T01:20:35.941Z,66.80
2018-05-23T01:23:07.202Z,66.90
2018-05-23T01:25:38.399Z,67.20
2018-05-23T01:28:10.397Z,67.70
2018-05-23T01:30:41.625Z,67.60
2018-05-23T01:33:12.817Z,67.70
2018-05-23T01:35:44.023Z,67.70
2018-05-23T01:38:15.235Z,68.10
2018-05-23T01:40:46.478Z,67.80
2018-05-23T01:43:19.882Z,67.90
2018-05-23T01:45:52.114Z,68.20
2018-05-23T01:48:23.305Z,68.10
2018-05-23T01:50:54.531Z,67.90
2018-05-23T01:53:25.753Z,68.00
2018-05-23T01:55:57.704Z,68.50
2018-05-23T01:58:28.873Z,68.40
2018-05-23T02:01:00.974Z,68.60
2018-05-23T02:03:32.182Z,68.60
2018-05-23T02:06:04.149Z,69.20
2018-05-23T02:08:36.059Z,69.00
2018-05-23T02:11:07.271Z,69.00
2018-05-23T02:13:38.460Z,69.40
2018-05-23T02:16:09.681Z,69.70
2018-05-23T02:18:40.882Z,69.90
2018-05-23T02:21:12.358Z,70.00
2018-05-23T02:23:43.601Z,69.90
2018-05-23T02:26:14.818Z,69.70
2018-05-23T02:28:46.794Z,70.40
2018-05-23T02:31:17.989Z,70.40
2018-05-23T02:33:49.237Z,70.40
2018-05-23T02:36:20.465Z,70.30
2018-05-23T02:38:51.682Z,70.50
2018-05-23T02:41:22.917Z,70.60
2018-05-23T02:43:54.156Z,70.90
2018-05-23T02:46:25.721Z,71.40
2018-05-23T02:48:56.958Z,71.10
2018-05-23T02:51:28.418Z,71.30
2018-05-23T02:53:59.597Z,71.50
2018-05-23T02:56:30.809Z,71.60
2018-05-23T02:59:02.456Z,71.80
2018-05-23T03:01:33.716Z,71.90
2018-05-23T03:04:05.184Z,72.00
2018-05-23T03:06:36.361Z,72.10
2018-05-23T03:09:08.350Z,72.30
2018-05-23T03:11:39.516Z,72.30
2018-05-23T03:14:10.749Z,72.50
2018-05-23T03:16:41.987Z,72.80
2018-05-23T03:19:13.169Z,73.00
2018-05-23T03:21:44.782Z,73.40
2018-05-23T03:24:16.007Z,73.30
2018-05-23T03:26:48.301Z,73.60
2018-05-23T03:29:19.542Z,73.60
2018-05-23T03:31:50.809Z,73.60
2018-05-23T03:34:21.996Z,73.70
2018-05-23T03:36:54.018Z,74.60
2018-05-23T03:39:25.237Z,74.20
2018-05-23T03:41:56.606Z,74.40
2018-05-23T03:44:27.892Z,74.40
2018-05-23T03:46:59.139Z,74.40
2018-05-23T03:49:30.336Z,74.20
2018-05-23T03:52:01.531Z,74.70
2018-05-23T03:54:33.488Z,74.60
2018-05-23T03:57:05.415Z,74.90
2018-05-23T03:59:49.538Z,74.90
2018-05-23T04:02:33.171Z,75.00
2018-05-23T04:05:18.122Z,74.90
2018-05-23T04:07:49.294Z,75.20
2018-05-23T04:10:20.534Z,75.20
2018-05-23T04:12:51.713Z,75.00
2018-05-23T04:15:22.989Z,75.00
2018-05-23T04:17:54.241Z,75.10
2018-05-23T04:20:25.501Z,74.70
2018-05-23T04:22:56.671Z,74.50
2018-05-23T04:25:28.025Z,74.60
2018-05-23T04:27:59.198Z,74.70
2018-05-23T04:30:31.158Z,74.70
2018-05-23T04:33:03.074Z,74.50
2018-05-23T04:35:34.707Z,74.40
2018-05-23T04:38:05.905Z,74.30
2018-05-23T04:40:37.201Z,74.20
2018-05-23T04:43:08.392Z,74.20
2018-05-23T04:45:39.724Z,74.30
2018-05-23T04:48:10.944Z,74.30
2018-05-23T04:50:42.150Z,74.10
2018-05-23T04:53:13.344Z,73.80
2018-05-23T04:55:44.860Z,73.50
2018-05-23T04:58:16.159Z,73.50
2018-05-23T05:00:47.453Z,73.70
2018-05-23T05:03:19.021Z,73.70
2018-05-23T05:05:50.368Z,73.60
2018-05-23T05:08:21.725Z,73.50
2018-05-23T05:10:54.138Z,73.50
2018-05-23T05:13:26.909Z,72.80
2018-05-23T05:15:58.243Z,72.90
2018-05-23T05:18:29.881Z,72.40
2018-05-23T05:21:01.379Z,71.70
2018-05-23T05:23:32.619Z,71.40
2018-05-23T05:26:04.211Z,71.80
2018-05-23T05:28:35.493Z,71.80
2018-05-23T05:31:06.706Z,71.50
2018-05-23T05:33:37.918Z,71.50
2018-05-23T05:36:09.207Z,71.60
2018-05-23T05:38:40.498Z,71.40
2018-05-23T05:41:11.652Z,70.70
2018-05-23T05:43:42.903Z,70.50
2018-05-23T05:46:14.170Z,70.40
2018-05-23T05:48:45.396Z,70.50
2018-05-23T05:51:16.639Z,70.50
2018-05-23T05:53:47.951Z,70.00
2018-05-23T05:56:24.461Z,68.80
2018-05-23T05:58:56.677Z,68.70
2018-05-23T06:01:28.644Z,68.10
2018-05-23T06:04:00.871Z,67.20
2018-05-23T06:06:33.446Z,67.70
2018-05-23T06:09:04.982Z,67.20
2018-05-23T06:11:36.204Z,66.60
2018-05-23T06:14:07.438Z,67.00
2018-05-23T06:16:40.554Z,66.90
2018-05-23T06:19:13.092Z,65.20
2018-05-23T06:21:44.375Z,65.80
2018-05-23T06:24:15.597Z,65.80
2018-05-23T06:26:46.935Z,65.20
2018-05-23T06:29:18.874Z,64.60
2018-05-23T06:31:51.241Z,64.10
2018-05-23T06:34:22.541Z,64.80
2018-05-23T06:36:53.947Z,64.90
2018-05-23T06:39:25.215Z,64.00
2018-05-23T06:41:57.119Z,63.50
2018-05-23T06:44:28.371Z,63.50
2018-05-23T06:47:00.949Z,63.60
2018-05-23T06:49:32.196Z,63.40
2018-05-23T06:52:03.409Z,63.10
2018-05-23T06:54:34.783Z,61.90
2018-05-23T06:57:06.054Z,61.80
2018-05-23T06:59:37.330Z,61.60
2018-05-23T07:02:08.678Z,61.60
2018-05-23T07:04:39.925Z,61.20
2018-05-23T07:07:11.200Z,61.20
2018-05-23T07:09:42.746Z,61.50
2018-05-23T07:12:13.966Z,60.90
2018-05-23T07:14:45.174Z,60.30
2018-05-23T07:17:17.557Z,59.40
2018-05-23T07:19:49.529Z,59.90
2018-05-23T07:22:21.255Z,59.90
2018-05-23T07:24:54.217Z,58.50
2018-05-23T07:27:25.557Z,59.00
2018-05-23T07:29:56.770Z,58.70
2018-05-23T07:32:28.722Z,58.30
2018-05-23T07:34:59.962Z,58.30
2018-05-23T07:37:31.916Z,58.30
2018-05-23T07:40:03.899Z,58.50
2018-05-23T07:42:35.081Z,58.50
2018-05-23T07:45:06.310Z,58.20
2018-05-23T07:47:38.481Z,58.50
2018-05-23T07:50:09.736Z,58.40
2018-05-23T07:52:40.929Z,57.50
2018-05-23T07:55:12.876Z,57.60
2018-05-23T07:57:44.913Z,57.60
2018-05-23T08:00:16.133Z,57.60
2018-05-23T08:02:47.410Z,57.50
2018-05-23T08:05:18.631Z,57.70
2018-05-23T08:07:49.902Z,57.30
2018-05-23T08:10:22.196Z,56.80
2018-05-23T08:12:53.466Z,57.30
2018-05-23T08:15:24.687Z,57.30
2018-05-23T08:17:55.896Z,57.10
2018-05-23T08:20:28.144Z,57.00
2018-05-23T08:22:59.413Z,57.00
2018-05-23T08:25:30.772Z,56.90
2018-05-23T08:28:03.081Z,56.70
2018-05-23T08:30:34.288Z,56.90
2018-05-23T08:33:06.317Z,56.20
2018-05-23T08:35:37.516Z,55.90
2018-05-23T08:38:10.681Z,55.40
2018-05-23T08:40:42.671Z,55.40
2018-05-23T08:43:15.715Z,55.80
2018-05-23T08:45:47.525Z,55.80
2018-05-23T08:48:20.306Z,55.20
2018-05-23T08:50:51.628Z,55.60
2018-05-23T08:53:23.440Z,54.70
2018-05-23T08:55:54.847Z,54.40
2018-05-23T08:58:26.082Z,53.80
2018-05-23T09:00:59.206Z,54.30
2018-05-23T09:03:33.566Z,52.00
2018-05-23T09:06:05.906Z,51.70
2018-05-23T09:08:37.177Z,52.20
2018-05-23T09:11:08.734Z,51.20
2018-05-23T09:13:39.911Z,52.20
2018-05-23T09:16:11.354Z,51.10
2018-05-23T09:21:33.770Z,52.20
2018-05-23T09:24:04.945Z,51.50
2018-05-23T09:26:36.991Z,51.50
2018-05-23T09:29:09.763Z,51.70
2018-05-23T09:31:42.599Z,51.50
2018-05-23T09:34:13.899Z,51.60
2018-05-23T09:36:48.092Z,51.00
2018-05-23T09:39:19.336Z,50.20
2018-05-23T09:41:50.553Z,50.30
2018-05-23T09:44:21.794Z,48.10
2018-05-23T09:46:53.659Z,48.20
2018-05-23T09:49:25.149Z,48.80
2018-05-23T09:51:56.393Z,49.30
2018-05-23T09:54:28.334Z,48.50
2018-05-23T09:56:59.589Z,47.60
2018-05-23T09:59:30.794Z,47.30
2018-05-23T10:02:02.064Z,45.30
2018-05-23T10:04:34.087Z,45.80
2018-05-23T10:07:06.037Z,46.00
2018-05-23T10:09:39.694Z,46.30
2018-05-23T10:12:10.885Z,46.30
2018-05-23T10:14:42.119Z,47.00
2018-05-23T10:17:14.122Z,45.60
2018-05-23T10:19:45.327Z,45.50
2018-05-23T10:22:17.763Z,46.20
2018-05-23T10:24:50.455Z,45.50
2018-05-23T10:27:22.527Z,45.70
2018-05-23T10:29:53.865Z,45.70
2018-05-23T10:32:25.103Z,45.10
2018-05-23T10:34:56.411Z,45.70
2018-05-23T10:37:27.588Z,44.40
2018-05-23T10:40:00.294Z,44.60
2018-05-23T10:42:31.470Z,44.60
2018-05-23T10:45:02.748Z,43.70
2018-05-23T10:47:34.011Z,41.60
2018-05-23T10:50:05.429Z,41.30
2018-05-23T10:52:36.625Z,41.10
2018-05-23T10:55:08.590Z,40.80
2018-05-23T10:57:40.528Z,41.20
2018-05-23T11:00:11.888Z,41.20
2018-05-23T11:02:43.315Z,40.70
2018-05-23T11:05:14.543Z,40.50
2018-05-23T11:07:45.836Z,40.70
2018-05-23T11:10:17.865Z,39.50
2018-05-23T11:12:49.232Z,39.40
2018-05-23T11:15:21.275Z,38.50
2018-05-23T11:17:52.560Z,38.50
2018-05-23T11:20:24.501Z,39.30
2018-05-23T11:22:56.255Z,39.20
2018-05-23T11:25:27.527Z,38.80
2018-05-23T11:27:59.009Z,39.20
2018-05-23T11:30:30.235Z,38.00
2018-05-23T11:33:01.546Z,37.50
2018-05-23T11:35:33.494Z,36.50
2018-05-23T11:38:05.471Z,36.80
2018-05-23T11:40:37.487Z,38.40
2018-05-23T11:43:08.694Z,38.30
2018-05-23T11:45:41.101Z,38.90
2018-05-23T11:48:12.343Z,38.80
2018-05-23T11:50:43.724Z,39.40
2018-05-23T11:53:15.334Z,39.40
2018-05-23T11:55:46.574Z,38.00
2018-05-23T11:58:17.872Z,38.50
2018-05-23T12:00:50.295Z,38.40
2018-05-23T12:03:21.981Z,38.50
2018-05-23T12:05:54.268Z,38.20
2018-05-23T12:08:25.953Z,38.20
2018-05-23T12:10:58.529Z,39.60
2018-05-23T12:13:29.764Z,40.00
2018-05-23T12:16:01.750Z,39.60
2018-05-23T12:18:32.966Z,39.60
2018-05-23T12:21:06.458Z,38.90
2018-05-23T12:23:37.683Z,39.70
2018-05-23T12:26:08.905Z,38.50
2018-05-23T12:28:40.166Z,36.70
2018-05-23T12:31:14.899Z,36.00
2018-05-23T12:33:46.144Z,34.40
2018-05-23T12:36:17.981Z,35.20
2018-05-23T12:38:50.091Z,36.40
2018-05-23T12:41:22.617Z,36.60
2018-05-23T12:43:55.645Z,36.40
2018-05-23T12:46:27.251Z,36.40
2018-05-23T12:48:58.506Z,38.00
2018-05-23T12:51:30.292Z,37.30
2018-05-23T12:54:01.599Z,38.10
2018-05-23T12:56:32.826Z,38.50
2018-05-23T12:59:04.079Z,38.50
2018-05-23T13:01:35.329Z,38.70
2018-05-23T13:04:06.578Z,38.70
2018-05-23T13:06:37.788Z,38.60
2018-05-23T13:09:10.024Z,38.00
2018-05-23T13:11:42.191Z,38.40
2018-05-23T13:14:13.472Z,38.40
2018-05-23T13:16:45.155Z,38.10
2018-05-23T13:19:16.478Z,37.80
2018-05-23T13:21:48.020Z,37.40
2018-05-23T13:24:19.248Z,37.70
2018-05-23T13:26:51.772Z,37.40
2018-05-23T13:29:23.040Z,37.30
2018-05-23T13:31:54.220Z,37.30
2018-05-23T13:34:25.422Z,37.40
2018-05-23T13:36:56.652Z,36.60
2018-05-23T13:39:27.847Z,36.90
2018-05-23T13:41:59.825Z,37.10
2018-05-23T13:44:31.067Z,36.30
2018-05-23T13:47:02.397Z,36.70
2018-05-23T13:49:34.361Z,36.90
2018-05-23T13:52:07.964Z,36.30
2018-05-23T13:54:40.179Z,36.40
2018-05-23T13:57:11.994Z,36.40
2018-05-23T13:59:43.262Z,36.70
2018-05-23T14:02:14.457Z,36.50
2018-05-23T14:04:45.644Z,36.60
2018-05-23T14:07:16.970Z,35.40
2018-05-23T14:09:48.288Z,35.50
2018-05-23T14:12:19.576Z,35.00
2018-05-23T14:14:50.790Z,34.50
2018-05-23T14:17:22.819Z,35.10
2018-05-23T14:19:54.083Z,34.50
2018-05-23T14:22:26.138Z,33.60
2018-05-23T14:24:57.571Z,33.50
2018-05-23T14:27:28.813Z,34.20
2018-05-23T14:30:00.026Z,34.80
2018-05-23T14:32:32.279Z,34.90
2018-05-23T14:35:03.575Z,34.50
2018-05-23T14:37:34.949Z,34.10
2018-05-23T14:40:06.310Z,34.40
2018-05-23T14:42:38.270Z,34.20
2018-05-23T14:45:09.527Z,34.10
2018-05-23T14:47:40.743Z,34.50
2018-05-23T14:50:12.804Z,33.40
2018-05-23T14:52:44.118Z,33.30
2018-05-23T14:55:15.614Z,33.30
2018-05-23T14:57:47.583Z,33.80
2018-05-23T15:00:19.007Z,33.70
2018-05-23T15:02:50.980Z,33.70
2018-05-23T15:05:22.952Z,34.00
2018-05-23T15:07:54.974Z,34.20
2018-05-23T15:10:26.250Z,34.10
2018-05-23T15:12:57.487Z,34.60
2018-05-23T15:15:28.672Z,35.20
2018-05-23T15:17:59.926Z,35.20
2018-05-23T15:20:31.399Z,34.80
2018-05-23T15:23:02.686Z,35.00
2018-05-23T15:25:34.668Z,34.80
2018-05-23T15:28:05.976Z,34.60
2018-05-23T15:30:37.198Z,34.60
2018-05-23T15:33:08.479Z,35.10
2018-05-23T15:35:40.448Z,35.90
2018-05-23T15:38:12.765Z,35.70
2018-05-23T15:40:44.056Z,35.50
2018-05-23T15:43:15.501Z,35.30
2018-05-23T15:45:46.794Z,35.70
2018-05-23T15:48:18.034Z,36.00
2018-05-23T15:50:49.312Z,35.90
2018-05-23T15:53:20.563Z,35.80
2018-05-23T15:55:51.787Z,35.80
2018-05-23T15:58:22.994Z,35.90
2018-05-23T16:00:54.268Z,35.80
2018-05-23T16:03:25.483Z,36.00
2018-05-23T16:05:56.726Z,36.00
2018-05-23T16:08:28.127Z,35.80
2018-05-23T16:10:59.352Z,35.80
2018-05-23T16:13:30.609Z,35.50
2018-05-23T16:16:01.855Z,35.90
2018-05-23T16:18:33.035Z,36.30
2018-05-23T16:21:05.017Z,35.60
2018-05-23T16:23:36.193Z,35.60
2018-05-23T16:26:07.439Z,35.40
2018-05-23T16:28:38.656Z,36.00
2018-05-23T16:31:10.186Z,35.50
2018-05-23T16:33:43.920Z,35.20
2018-05-23T16:36:15.276Z,35.20
2018-05-23T16:38:46.543Z,35.20
2018-05-23T16:41:17.794Z,35.30
2018-05-23T16:43:49.070Z,35.40
2018-05-23T16:46:21.063Z,35.70
2018-05-23T16:48:52.310Z,35.60
2018-05-23T16:51:23.698Z,35.60
2018-05-23T16:53:55.074Z,35.90
2018-05-23T16:56:27.108Z,36.20
2018-05-23T16:58:58.321Z,36.20
2018-05-23T17:01:29.603Z,36.30
2018-05-23T17:04:00.862Z,36.40
2018-05-23T17:06:33.142Z,36.60
2018-05-23T17:09:05.313Z,36.50
2018-05-23T17:11:36.532Z,36.40
2018-05-23T17:14:08.596Z,36.50
2018-05-23T17:16:39.819Z,36.40
2018-05-23T17:19:11.060Z,36.40
2018-05-23T17:21:42.250Z,36.60
2018-05-23T17:24:14.231Z,36.20
2018-05-23T17:26:45.440Z,36.20
2018-05-23T17:29:17.462Z,36.60
2018-05-23T17:31:48.647Z,36.50
2018-05-23T17:34:20.663Z,36.20
2018-05-23T17:36:51.869Z,36.20
2018-05-23T17:39:23.079Z,36.10
2018-05-23T17:41:54.320Z,36.20
2018-05-23T17:44:25.561Z,36.20
2018-05-23T17:46:56.763Z,36.10
2018-05-23T17:49:28.014Z,36.20
2018-05-23T17:52:00.079Z,36.10
2018-05-23T17:54:31.351Z,36.40
2018-05-23T17:57:02.612Z,36.70
2018-05-23T17:59:34.017Z,36.70
2018-05-23T18:02:05.198Z,36.70
2018-05-23T18:04:37.183Z,36.80
2018-05-23T18:07:09.125Z,36.90
2018-05-23T18:09:41.097Z,37.30
2018-05-23T18:12:13.140Z,37.40
2018-05-23T18:14:47.076Z,37.60
2018-05-23T18:17:19.035Z,37.70
2018-05-23T18:19:50.962Z,38.00
2018-05-23T18:22:22.179Z,37.90
2018-05-23T18:24:53.379Z,38.00
2018-05-23T18:27:25.344Z,38.30
2018-05-23T18:29:57.378Z,38.70
2018-05-23T18:32:28.886Z,38.60
2018-05-23T18:35:00.148Z,38.70
2018-05-23T18:37:31.363Z,38.90
2018-05-23T18:40:03.331Z,39.60
2018-05-23T18:42:34.546Z,39.50
2018-05-23T18:45:05.775Z,39.60
2018-05-23T18:47:37.744Z,40.10
2018-05-23T18:50:09.142Z,40.10
2018-05-23T18:52:40.351Z,41.00
2018-05-23T18:55:12.396Z,41.00
2018-05-23T18:57:45.094Z,41.80
2018-05-23T19:00:17.068Z,43.70
2018-05-23T19:02:48.354Z,43.60
2018-05-23T19:05:19.668Z,45.60
2018-05-23T19:07:50.878Z,46.70
2018-05-23T19:10:22.135Z,48.70
2018-05-23T19:12:53.402Z,49.60
2018-05-23T19:15:24.686Z,50.70
2018-05-23T19:17:55.935Z,51.30
2018-05-23T19:20:29.175Z,52.30
2018-05-23T19:23:01.116Z,52.90
2018-05-23T19:25:32.595Z,52.80
2018-05-23T19:28:04.288Z,53.20
2018-05-23T19:30:35.471Z,53.60
2018-05-23T19:33:07.475Z,54.40
2018-05-23T19:35:39.814Z,54.20
2018-05-23T19:38:11.953Z,55.10
2018-05-23T19:40:44.618Z,55.10
2018-05-23T19:43:15.841Z,55.10
2018-05-23T19:45:47.010Z,55.40
2018-05-23T19:48:19.706Z,56.10
2018-05-23T19:50:51.655Z,56.40
2018-05-23T19:55:57.761Z,56.90
2018-05-23T19:58:29.026Z,56.90
2018-05-23T20:01:00.195Z,57.20
2018-05-23T20:03:31.420Z,57.60
2018-05-23T20:06:02.656Z,57.70
2018-05-23T20:08:33.835Z,57.90
2018-05-23T20:11:05.081Z,58.10
2018-05-23T20:13:37.761Z,58.70
2018-05-23T20:16:10.540Z,58.70
2018-05-23T20:18:42.473Z,58.70
2018-05-23T20:21:13.697Z,58.60
2018-05-23T20:23:45.054Z,58.60
2018-05-23T20:26:16.239Z,58.80
2018-05-23T20:28:50.304Z,59.20
2018-05-23T20:31:21.567Z,59.20
2018-05-23T20:33:52.808Z,59.40
2018-05-23T20:36:24.366Z,59.50
2018-05-23T20:38:55.614Z,59.70
2018-05-23T20:41:26.870Z,59.80
2018-05-23T20:43:58.112Z,59.90
2018-05-23T20:46:29.356Z,60.10
2018-05-23T20:49:00.552Z,60.30
2018-05-23T20:51:31.699Z,60.40
2018-05-23T20:54:03.152Z,60.60
2018-05-23T20:56:34.392Z,60.90
2018-05-23T20:59:05.688Z,60.90
2018-05-23T21:01:36.873Z,61.10
2018-05-23T21:04:08.838Z,61.50
2018-05-23T21:06:40.815Z,61.60
2018-05-23T21:09:12.088Z,61.60
2018-05-23T21:11:43.274Z,61.80
2018-05-23T21:14:15.212Z,62.00
2018-05-23T21:16:47.215Z,62.20
2018-05-23T21:19:18.419Z,62.20
2018-05-23T21:21:49.619Z,62.00
2018-05-23T21:24:20.869Z,62.90
2018-05-23T21:26:52.043Z,62.10
2018-05-23T21:29:23.303Z,62.30
2018-05-23T21:31:55.633Z,62.60
2018-05-23T21:34:26.892Z,62.50
2018-05-23T21:36:58.066Z,62.50
2018-05-23T21:39:30.039Z,62.80
2018-05-23T21:42:01.943Z,62.90
2018-05-23T21:44:33.151Z,62.80
2018-05-23T21:47:05.081Z,63.20
2018-05-23T21:49:37.035Z,64.10
2018-05-23T21:52:08.227Z,63.20
2018-05-23T21:54:39.495Z,63.40
2018-05-23T21:57:10.692Z,63.30
2018-05-23T21:59:42.197Z,63.40
2018-05-23T22:02:13.416Z,63.50
2018-05-23T22:04:44.938Z,63.50
2018-05-23T22:07:16.878Z,63.50
2018-05-23T22:09:48.078Z,63.50
2018-05-23T22:12:19.292Z,63.80
2018-05-23T22:14:50.533Z,63.80
2018-05-23T22:17:21.833Z,64.10
2018-05-23T22:19:53.574Z,64.20
2018-05-23T22:22:24.769Z,64.40
2018-05-23T22:24:56.720Z,64.80
2018-05-23T22:27:28.682Z,64.90
2018-05-23T22:30:00.652Z,65.10
2018-05-23T22:32:32.610Z,65.30
2018-05-23T22:35:04.606Z,66.10
2018-05-23T22:37:35.835Z,65.40
2018-05-23T22:40:07.794Z,65.80
2018-05-23T22:42:39.963Z,65.90
2018-05-23T22:45:12.543Z,65.90
2018-05-23T22:47:43.718Z,66.00
2018-05-23T22:50:15.038Z,66.10
2018-05-23T22:52:46.288Z,66.10
2018-05-23T22:55:17.507Z,66.30
2018-05-23T22:57:49.855Z,66.60
2018-05-23T23:00:21.046Z,66.60
2018-05-23T23:02:52.316Z,66.60
2018-05-23T23:05:23.487Z,66.50
2018-05-23T23:07:54.722Z,66.70
2018-05-23T23:10:25.917Z,67.70
2018-05-23T23:12:57.133Z,67.00
2018-05-23T23:15:29.407Z,67.40
2018-05-23T23:18:00.687Z,67.40
2018-05-23T23:20:31.902Z,67.30
2018-05-23T23:23:03.828Z,67.30
2018-05-23T23:25:35.071Z,67.30
2018-05-23T23:28:09.326Z,67.40
2018-05-23T23:30:40.555Z,67.30
2018-05-23T23:33:11.753Z,67.40
2018-05-23T23:35:43.300Z,67.50
2018-05-23T23:38:14.566Z,67.50
2018-05-23T23:40:45.978Z,67.60
2018-05-23T23:43:17.219Z,67.80
2018-05-23T23:45:48.670Z,68.00
2018-05-23T23:48:19.870Z,67.80
2018-05-23T23:50:52.002Z,67.90
2018-05-23T23:53:23.202Z,67.70
2018-05-23T23:55:55.155Z,67.60
2018-05-23T23:58:27.238Z,67.70
